sensor_id;sensor_type;location;lat;lon;timestamp;P1;durP1;ratioP1;P2;durP2;ratioP2
12302;SDS011;6214;48.012;7.862;2024-02-15T00:00:52;4.00;;;0.40;;
12302;SDS011;6214;48.012;7.862;2024-02-15T00:03:19;4.10;;;0.40;;
12302;SDS011;6214;48.012;7.862;2024-02-15T00:05:47;4.00;;;0.43;;
12302;SDS011;6214;48.012;7.862;2024-02-15T00:08:14;4.00;;;0.40;;
12302;SDS011;6214;48.012;7.862;2024-02-15T00:10:41;4.10;;;0.50;;
12302;SDS011;6214;48.012;7.862;2024-02-15T00:13:10;4.50;;;0.50;;
12302;SDS011;6214;48.012;7.862;2024-02-15T00:15:36;4.13;;;0.50;;
12302;SDS011;6214;48.012;7.862;2024-02-15T00:18:03;4.10;;;0.40;;
12302;SDS011;6214;48.012;7.862;2024-02-15T00:20:31;4.22;;;0.50;;
12302;SDS011;6214;48.012;7.862;2024-02-15T00:23:00;4.32;;;0.60;;
12302;SDS011;6214;48.012;7.862;2024-02-15T00:25:27;4.20;;;0.60;;
12302;SDS011;6214;48.012;7.862;2024-02-15T00:27:53;4.20;;;0.50;;
12302;SDS011;6214;48.012;7.862;2024-02-15T00:30:20;4.10;;;0.50;;
12302;SDS011;6214;48.012;7.862;2024-02-15T00:32:48;4.10;;;0.50;;
12302;SDS011;6214;48.012;7.862;2024-02-15T00:35:15;4.10;;;0.40;;
12302;SDS011;6214;48.012;7.862;2024-02-15T00:37:42;4.00;;;0.40;;
12302;SDS011;6214;48.012;7.862;2024-02-15T00:40:09;4.00;;;0.40;;
12302;SDS011;6214;48.012;7.862;2024-02-15T00:42:36;4.00;;;0.40;;
12302;SDS011;6214;48.012;7.862;2024-02-15T00:45:03;4.18;;;0.50;;
12302;SDS011;6214;48.012;7.862;2024-02-15T00:47:31;4.00;;;0.40;;
12302;SDS011;6214;48.012;7.862;2024-02-15T00:49:59;4.00;;;0.40;;
12302;SDS011;6214;48.012;7.862;2024-02-15T00:52:26;4.00;;;0.47;;
12302;SDS011;6214;48.012;7.862;2024-02-15T00:54:55;4.00;;;0.40;;
12302;SDS011;6214;48.012;7.862;2024-02-15T00:57:22;4.00;;;0.40;;
12302;SDS011;6214;48.012;7.862;2024-02-15T00:59:49;4.20;;;0.50;;
12302;SDS011;6214;48.012;7.862;2024-02-15T01:02:15;4.20;;;0.40;;
12302;SDS011;6214;48.012;7.862;2024-02-15T01:04:44;4.00;;;0.50;;
12302;SDS011;6214;48.012;7.862;2024-02-15T01:07:12;4.10;;;0.40;;
12302;SDS011;6214;48.012;7.862;2024-02-15T01:09:39;4.10;;;0.50;;
12302;SDS011;6214;48.012;7.862;2024-02-15T01:12:06;4.00;;;0.40;;
12302;SDS011;6214;48.012;7.862;2024-02-15T01:14:33;4.10;;;0.50;;
12302;SDS011;6214;48.012;7.862;2024-02-15T01:17:00;4.10;;;0.50;;
12302;SDS011;6214;48.012;7.862;2024-02-15T01:19:27;4.10;;;0.40;;
12302;SDS011;6214;48.012;7.862;2024-02-15T01:21:54;4.00;;;0.40;;
12302;SDS011;6214;48.012;7.862;2024-02-15T01:24:21;4.20;;;0.50;;
12302;SDS011;6214;48.012;7.862;2024-02-15T01:26:48;4.10;;;0.43;;
12302;SDS011;6214;48.012;7.862;2024-02-15T01:29:15;4.00;;;0.38;;
12302;SDS011;6214;48.012;7.862;2024-02-15T01:31:42;4.05;;;0.45;;
12302;SDS011;6214;48.012;7.862;2024-02-15T01:34:09;4.30;;;0.50;;
12302;SDS011;6214;48.012;7.862;2024-02-15T01:36:36;4.03;;;0.40;;
12302;SDS011;6214;48.012;7.862;2024-02-15T01:39:03;4.00;;;0.30;;
12302;SDS011;6214;48.012;7.862;2024-02-15T01:41:30;4.30;;;0.40;;
12302;SDS011;6214;48.012;7.862;2024-02-15T01:43:57;4.00;;;0.40;;
12302;SDS011;6214;48.012;7.862;2024-02-15T01:46:24;4.10;;;0.50;;
12302;SDS011;6214;48.012;7.862;2024-02-15T01:48:51;4.00;;;0.40;;
12302;SDS011;6214;48.012;7.862;2024-02-15T01:51:18;4.00;;;0.40;;
12302;SDS011;6214;48.012;7.862;2024-02-15T01:53:45;4.10;;;0.40;;
12302;SDS011;6214;48.012;7.862;2024-02-15T01:56:13;4.20;;;0.50;;
12302;SDS011;6214;48.012;7.862;2024-02-15T01:58:41;4.20;;;0.50;;
12302;SDS011;6214;48.012;7.862;2024-02-15T02:01:11;4.05;;;0.50;;
12302;SDS011;6214;48.012;7.862;2024-02-15T02:03:39;4.00;;;0.40;;
12302;SDS011;6214;48.012;7.862;2024-02-15T02:06:06;4.00;;;0.40;;
12302;SDS011;6214;48.012;7.862;2024-02-15T02:08:34;4.00;;;0.30;;
12302;SDS011;6214;48.012;7.862;2024-02-15T02:11:01;4.10;;;0.40;;
12302;SDS011;6214;48.012;7.862;2024-02-15T02:13:28;4.00;;;0.40;;
12302;SDS011;6214;48.012;7.862;2024-02-15T02:15:56;4.00;;;0.40;;
12302;SDS011;6214;48.012;7.862;2024-02-15T02:18:23;4.00;;;0.40;;
12302;SDS011;6214;48.012;7.862;2024-02-15T02:20:51;4.30;;;0.40;;
12302;SDS011;6214;48.012;7.862;2024-02-15T02:23:20;4.10;;;0.40;;
12302;SDS011;6214;48.012;7.862;2024-02-15T02:25:52;4.10;;;0.50;;
12302;SDS011;6214;48.012;7.862;2024-02-15T02:28:21;4.00;;;0.40;;
12302;SDS011;6214;48.012;7.862;2024-02-15T02:30:48;4.20;;;0.40;;
12302;SDS011;6214;48.012;7.862;2024-02-15T02:33:15;4.00;;;0.47;;
12302;SDS011;6214;48.012;7.862;2024-02-15T02:35:48;4.10;;;0.40;;
12302;SDS011;6214;48.012;7.862;2024-02-15T02:38:15;4.20;;;0.40;;
12302;SDS011;6214;48.012;7.862;2024-02-15T02:40:42;4.00;;;0.40;;
12302;SDS011;6214;48.012;7.862;2024-02-15T02:43:09;4.20;;;0.40;;
12302;SDS011;6214;48.012;7.862;2024-02-15T02:45:36;4.10;;;0.50;;
12302;SDS011;6214;48.012;7.862;2024-02-15T02:48:03;4.30;;;0.50;;
12302;SDS011;6214;48.012;7.862;2024-02-15T02:50:30;4.10;;;0.50;;
12302;SDS011;6214;48.012;7.862;2024-02-15T02:52:58;4.10;;;0.40;;
12302;SDS011;6214;48.012;7.862;2024-02-15T02:55:25;4.00;;;0.40;;
12302;SDS011;6214;48.012;7.862;2024-02-15T02:57:53;4.00;;;0.40;;
12302;SDS011;6214;48.012;7.862;2024-02-15T03:00:21;4.10;;;0.50;;
12302;SDS011;6214;48.012;7.862;2024-02-15T03:02:48;4.05;;;0.50;;
12302;SDS011;6214;48.012;7.862;2024-02-15T03:05:15;4.10;;;0.50;;
12302;SDS011;6214;48.012;7.862;2024-02-15T03:07:42;4.20;;;0.60;;
12302;SDS011;6214;48.012;7.862;2024-02-15T03:10:09;4.00;;;0.50;;
12302;SDS011;6214;48.012;7.862;2024-02-15T03:12:39;4.13;;;0.60;;
12302;SDS011;6214;48.012;7.862;2024-02-15T03:15:06;4.20;;;0.60;;
12302;SDS011;6214;48.012;7.862;2024-02-15T03:17:38;4.10;;;0.40;;
12302;SDS011;6214;48.012;7.862;2024-02-15T03:20:07;4.18;;;0.50;;
12302;SDS011;6214;48.012;7.862;2024-02-15T03:22:39;4.40;;;0.50;;
12302;SDS011;6214;48.012;7.862;2024-02-15T03:25:07;4.00;;;0.50;;
12302;SDS011;6214;48.012;7.862;2024-02-15T03:27:35;4.00;;;0.50;;
12302;SDS011;6214;48.012;7.862;2024-02-15T03:30:03;4.10;;;0.50;;
12302;SDS011;6214;48.012;7.862;2024-02-15T03:32:31;4.00;;;0.40;;
12302;SDS011;6214;48.012;7.862;2024-02-15T03:34:58;4.10;;;0.40;;
12302;SDS011;6214;48.012;7.862;2024-02-15T03:37:27;4.10;;;0.40;;
12302;SDS011;6214;48.012;7.862;2024-02-15T03:39:53;4.00;;;0.50;;
12302;SDS011;6214;48.012;7.862;2024-02-15T03:42:21;4.10;;;0.47;;
12302;SDS011;6214;48.012;7.862;2024-02-15T03:44:47;4.00;;;0.40;;
12302;SDS011;6214;48.012;7.862;2024-02-15T03:47:14;4.40;;;0.70;;
12302;SDS011;6214;48.012;7.862;2024-02-15T03:49:41;4.22;;;0.50;;
12302;SDS011;6214;48.012;7.862;2024-02-15T03:52:08;4.20;;;0.50;;
12302;SDS011;6214;48.012;7.862;2024-02-15T03:54:38;4.27;;;0.57;;
12302;SDS011;6214;48.012;7.862;2024-02-15T03:57:05;4.50;;;0.50;;
12302;SDS011;6214;48.012;7.862;2024-02-15T03:59:33;4.20;;;0.50;;
12302;SDS011;6214;48.012;7.862;2024-02-15T04:02:01;4.10;;;0.40;;
12302;SDS011;6214;48.012;7.862;2024-02-15T04:04:29;4.00;;;0.40;;
12302;SDS011;6214;48.012;7.862;2024-02-15T04:06:57;4.05;;;0.40;;
12302;SDS011;6214;48.012;7.862;2024-02-15T04:09:24;4.60;;;0.40;;
12302;SDS011;6214;48.012;7.862;2024-02-15T04:11:51;4.00;;;0.40;;
12302;SDS011;6214;48.012;7.862;2024-02-15T04:14:20;4.13;;;0.40;;
12302;SDS011;6214;48.012;7.862;2024-02-15T04:16:46;4.50;;;0.50;;
12302;SDS011;6214;48.012;7.862;2024-02-15T04:19:13;4.00;;;0.40;;
12302;SDS011;6214;48.012;7.862;2024-02-15T04:21:41;3.90;;;0.40;;
12302;SDS011;6214;48.012;7.862;2024-02-15T04:24:10;4.00;;;0.40;;
12302;SDS011;6214;48.012;7.862;2024-02-15T04:26:37;4.00;;;0.40;;
12302;SDS011;6214;48.012;7.862;2024-02-15T04:29:04;4.00;;;0.40;;
12302;SDS011;6214;48.012;7.862;2024-02-15T04:31:34;4.18;;;0.50;;
12302;SDS011;6214;48.012;7.862;2024-02-15T04:34:05;4.00;;;0.40;;
12302;SDS011;6214;48.012;7.862;2024-02-15T04:36:32;4.30;;;0.50;;
12302;SDS011;6214;48.012;7.862;2024-02-15T04:39:00;4.00;;;0.40;;
12302;SDS011;6214;48.012;7.862;2024-02-15T04:41:29;4.10;;;0.40;;
12302;SDS011;6214;48.012;7.862;2024-02-15T04:43:56;4.10;;;0.50;;
12302;SDS011;6214;48.012;7.862;2024-02-15T04:46:23;4.30;;;0.50;;
12302;SDS011;6214;48.012;7.862;2024-02-15T04:48:50;4.20;;;0.50;;
12302;SDS011;6214;48.012;7.862;2024-02-15T04:51:17;4.03;;;0.50;;
12302;SDS011;6214;48.012;7.862;2024-02-15T04:53:46;4.00;;;0.40;;
12302;SDS011;6214;48.012;7.862;2024-02-15T04:56:14;4.00;;;0.50;;
12302;SDS011;6214;48.012;7.862;2024-02-15T04:58:41;4.30;;;0.60;;
12302;SDS011;6214;48.012;7.862;2024-02-15T05:01:12;4.40;;;0.60;;
12302;SDS011;6214;48.012;7.862;2024-02-15T05:03:39;4.30;;;0.50;;
12302;SDS011;6214;48.012;7.862;2024-02-15T05:06:07;4.00;;;0.50;;
12302;SDS011;6214;48.012;7.862;2024-02-15T05:08:35;4.00;;;0.43;;
12302;SDS011;6214;48.012;7.862;2024-02-15T05:11:09;4.10;;;0.50;;
12302;SDS011;6214;48.012;7.862;2024-02-15T05:13:41;4.40;;;0.60;;
12302;SDS011;6214;48.012;7.862;2024-02-15T05:16:08;4.30;;;0.60;;
12302;SDS011;6214;48.012;7.862;2024-02-15T05:18:35;4.30;;;0.50;;
12302;SDS011;6214;48.012;7.862;2024-02-15T05:21:02;4.10;;;0.50;;
12302;SDS011;6214;48.012;7.862;2024-02-15T05:23:29;4.30;;;0.50;;
12302;SDS011;6214;48.012;7.862;2024-02-15T05:25:57;3.95;;;0.40;;
12302;SDS011;6214;48.012;7.862;2024-02-15T05:28:24;4.20;;;0.60;;
12302;SDS011;6214;48.012;7.862;2024-02-15T05:31:08;4.00;;;0.50;;
12302;SDS011;6214;48.012;7.862;2024-02-15T05:33:43;4.60;;;0.50;;
12302;SDS011;6214;48.012;7.862;2024-02-15T05:36:11;4.40;;;0.60;;
12302;SDS011;6214;48.012;7.862;2024-02-15T05:38:39;4.15;;;0.52;;
12302;SDS011;6214;48.012;7.862;2024-02-15T05:41:07;4.20;;;0.70;;
12302;SDS011;6214;48.012;7.862;2024-02-15T05:43:34;4.07;;;0.50;;
12302;SDS011;6214;48.012;7.862;2024-02-15T05:46:04;4.00;;;0.50;;
12302;SDS011;6214;48.012;7.862;2024-02-15T05:48:32;3.90;;;0.40;;
12302;SDS011;6214;48.012;7.862;2024-02-15T05:51:03;4.20;;;0.50;;
12302;SDS011;6214;48.012;7.862;2024-02-15T05:53:31;4.40;;;0.60;;
12302;SDS011;6214;48.012;7.862;2024-02-15T05:56:07;4.00;;;0.50;;
12302;SDS011;6214;48.012;7.862;2024-02-15T05:58:34;4.10;;;0.50;;
12302;SDS011;6214;48.012;7.862;2024-02-15T06:01:02;4.18;;;0.52;;
12302;SDS011;6214;48.012;7.862;2024-02-15T06:03:32;4.30;;;0.70;;
12302;SDS011;6214;48.012;7.862;2024-02-15T06:06:00;4.15;;;0.50;;
12302;SDS011;6214;48.012;7.862;2024-02-15T06:08:29;4.00;;;0.40;;
12302;SDS011;6214;48.012;7.862;2024-02-15T06:10:58;4.00;;;0.40;;
12302;SDS011;6214;48.012;7.862;2024-02-15T06:13:25;4.17;;;0.47;;
12302;SDS011;6214;48.012;7.862;2024-02-15T06:15:53;4.13;;;0.50;;
12302;SDS011;6214;48.012;7.862;2024-02-15T06:18:20;4.20;;;0.60;;
12302;SDS011;6214;48.012;7.862;2024-02-15T06:20:50;4.00;;;0.50;;
12302;SDS011;6214;48.012;7.862;2024-02-15T06:23:21;4.00;;;0.50;;
12302;SDS011;6214;48.012;7.862;2024-02-15T06:25:50;4.10;;;0.50;;
12302;SDS011;6214;48.012;7.862;2024-02-15T06:28:22;4.10;;;0.60;;
12302;SDS011;6214;48.012;7.862;2024-02-15T06:31:08;3.90;;;0.40;;
12302;SDS011;6214;48.012;7.862;2024-02-15T06:33:54;4.10;;;0.50;;
12302;SDS011;6214;48.012;7.862;2024-02-15T06:36:45;4.20;;;0.60;;
12302;SDS011;6214;48.012;7.862;2024-02-15T06:39:35;4.30;;;0.60;;
12302;SDS011;6214;48.012;7.862;2024-02-15T06:42:08;4.10;;;0.53;;
12302;SDS011;6214;48.012;7.862;2024-02-15T06:44:42;4.30;;;0.57;;
12302;SDS011;6214;48.012;7.862;2024-02-15T06:47:14;4.20;;;0.55;;
12302;SDS011;6214;48.012;7.862;2024-02-15T06:49:45;4.10;;;0.50;;
12302;SDS011;6214;48.012;7.862;2024-02-15T06:52:12;4.30;;;0.60;;
12302;SDS011;6214;48.012;7.862;2024-02-15T06:54:40;4.50;;;0.53;;
12302;SDS011;6214;48.012;7.862;2024-02-15T06:57:07;4.55;;;0.60;;
12302;SDS011;6214;48.012;7.862;2024-02-15T06:59:34;4.05;;;0.50;;
12302;SDS011;6214;48.012;7.862;2024-02-15T07:02:03;4.30;;;0.50;;
12302;SDS011;6214;48.012;7.862;2024-02-15T07:04:34;4.00;;;0.45;;
12302;SDS011;6214;48.012;7.862;2024-02-15T07:07:00;4.60;;;0.50;;
12302;SDS011;6214;48.012;7.862;2024-02-15T07:09:29;4.00;;;0.40;;
12302;SDS011;6214;48.012;7.862;2024-02-15T07:11:56;4.00;;;0.50;;
12302;SDS011;6214;48.012;7.862;2024-02-15T07:14:24;4.40;;;0.60;;
12302;SDS011;6214;48.012;7.862;2024-02-15T07:16:54;4.30;;;0.80;;
12302;SDS011;6214;48.012;7.862;2024-02-15T07:19:23;4.32;;;0.70;;
12302;SDS011;6214;48.012;7.862;2024-02-15T07:21:53;4.57;;;0.70;;
12302;SDS011;6214;48.012;7.862;2024-02-15T07:24:21;4.45;;;0.70;;
12302;SDS011;6214;48.012;7.862;2024-02-15T07:26:48;4.60;;;0.80;;
12302;SDS011;6214;48.012;7.862;2024-02-15T07:29:18;4.40;;;0.80;;
12302;SDS011;6214;48.012;7.862;2024-02-15T07:31:46;4.30;;;0.50;;
12302;SDS011;6214;48.012;7.862;2024-02-15T07:34:13;4.20;;;0.60;;
12302;SDS011;6214;48.012;7.862;2024-02-15T07:36:42;4.30;;;0.70;;
12302;SDS011;6214;48.012;7.862;2024-02-15T07:39:09;4.20;;;0.65;;
12302;SDS011;6214;48.012;7.862;2024-02-15T07:41:40;4.10;;;0.50;;
12302;SDS011;6214;48.012;7.862;2024-02-15T07:44:07;4.40;;;0.60;;
12302;SDS011;6214;48.012;7.862;2024-02-15T07:46:34;4.40;;;0.80;;
12302;SDS011;6214;48.012;7.862;2024-02-15T07:49:01;4.60;;;0.80;;
12302;SDS011;6214;48.012;7.862;2024-02-15T07:51:28;4.40;;;0.70;;
12302;SDS011;6214;48.012;7.862;2024-02-15T07:53:55;4.10;;;0.50;;
12302;SDS011;6214;48.012;7.862;2024-02-15T07:56:22;4.10;;;0.60;;
12302;SDS011;6214;48.012;7.862;2024-02-15T07:58:49;4.40;;;0.80;;
12302;SDS011;6214;48.012;7.862;2024-02-15T08:01:19;5.40;;;1.98;;
12302;SDS011;6214;48.012;7.862;2024-02-15T08:03:47;5.50;;;1.75;;
12302;SDS011;6214;48.012;7.862;2024-02-15T08:06:15;6.30;;;2.40;;
12302;SDS011;6214;48.012;7.862;2024-02-15T08:08:44;6.20;;;2.40;;
12302;SDS011;6214;48.012;7.862;2024-02-15T08:11:15;5.50;;;1.50;;
12302;SDS011;6214;48.012;7.862;2024-02-15T08:13:49;5.60;;;1.48;;
12302;SDS011;6214;48.012;7.862;2024-02-15T08:16:18;5.88;;;1.77;;
12302;SDS011;6214;48.012;7.862;2024-02-15T08:18:49;4.70;;;1.15;;
12302;SDS011;6214;48.012;7.862;2024-02-15T08:21:27;4.78;;;1.00;;
12302;SDS011;6214;48.012;7.862;2024-02-15T08:23:56;4.38;;;0.75;;
12302;SDS011;6214;48.012;7.862;2024-02-15T08:26:23;4.78;;;0.70;;
12302;SDS011;6214;48.012;7.862;2024-02-15T08:28:50;4.10;;;0.50;;
12302;SDS011;6214;48.012;7.862;2024-02-15T08:31:16;4.43;;;0.77;;
12302;SDS011;6214;48.012;7.862;2024-02-15T08:33:45;4.20;;;0.60;;
12302;SDS011;6214;48.012;7.862;2024-02-15T08:36:12;4.20;;;0.60;;
12302;SDS011;6214;48.012;7.862;2024-02-15T08:38:42;4.20;;;0.60;;
12302;SDS011;6214;48.012;7.862;2024-02-15T08:41:11;4.40;;;0.70;;
12302;SDS011;6214;48.012;7.862;2024-02-15T08:43:38;5.10;;;1.20;;
12302;SDS011;6214;48.012;7.862;2024-02-15T08:46:07;4.53;;;0.80;;
12302;SDS011;6214;48.012;7.862;2024-02-15T08:48:34;4.70;;;0.90;;
12302;SDS011;6214;48.012;7.862;2024-02-15T08:51:02;4.70;;;1.00;;
12302;SDS011;6214;48.012;7.862;2024-02-15T08:53:29;4.50;;;1.00;;
12302;SDS011;6214;48.012;7.862;2024-02-15T08:55:58;4.43;;;0.70;;
12302;SDS011;6214;48.012;7.862;2024-02-15T08:58:25;4.30;;;0.70;;
12302;SDS011;6214;48.012;7.862;2024-02-15T09:00:53;4.90;;;1.20;;
12302;SDS011;6214;48.012;7.862;2024-02-15T09:03:20;4.80;;;1.20;;
12302;SDS011;6214;48.012;7.862;2024-02-15T09:05:47;4.45;;;0.80;;
12302;SDS011;6214;48.012;7.862;2024-02-15T09:08:14;4.50;;;0.80;;
12302;SDS011;6214;48.012;7.862;2024-02-15T09:10:41;4.40;;;0.80;;
12302;SDS011;6214;48.012;7.862;2024-02-15T09:13:08;5.00;;;1.10;;
12302;SDS011;6214;48.012;7.862;2024-02-15T09:15:35;5.80;;;1.50;;
12302;SDS011;6214;48.012;7.862;2024-02-15T09:18:02;5.30;;;1.20;;
12302;SDS011;6214;48.012;7.862;2024-02-15T09:20:29;5.30;;;1.40;;
12302;SDS011;6214;48.012;7.862;2024-02-15T09:22:57;5.80;;;1.60;;
12302;SDS011;6214;48.012;7.862;2024-02-15T09:25:25;5.65;;;1.88;;
12302;SDS011;6214;48.012;7.862;2024-02-15T09:27:52;5.50;;;1.80;;
12302;SDS011;6214;48.012;7.862;2024-02-15T09:30:22;5.50;;;1.60;;
12302;SDS011;6214;48.012;7.862;2024-02-15T09:32:51;4.80;;;1.30;;
12302;SDS011;6214;48.012;7.862;2024-02-15T09:35:18;5.20;;;1.75;;
12302;SDS011;6214;48.012;7.862;2024-02-15T09:37:46;5.80;;;1.80;;
12302;SDS011;6214;48.012;7.862;2024-02-15T09:40:16;6.40;;;1.88;;
12302;SDS011;6214;48.012;7.862;2024-02-15T09:42:44;5.45;;;1.75;;
12302;SDS011;6214;48.012;7.862;2024-02-15T09:45:13;5.75;;;2.00;;
12302;SDS011;6214;48.012;7.862;2024-02-15T09:47:44;5.50;;;1.70;;
12302;SDS011;6214;48.012;7.862;2024-02-15T09:50:12;5.60;;;2.10;;
12302;SDS011;6214;48.012;7.862;2024-02-15T09:52:49;5.93;;;2.10;;
12302;SDS011;6214;48.012;7.862;2024-02-15T09:55:18;5.27;;;1.90;;
12302;SDS011;6214;48.012;7.862;2024-02-15T09:57:46;6.15;;;2.10;;
12302;SDS011;6214;48.012;7.862;2024-02-15T10:00:13;6.20;;;2.00;;
12302;SDS011;6214;48.012;7.862;2024-02-15T10:02:51;6.00;;;2.10;;
12302;SDS011;6214;48.012;7.862;2024-02-15T10:05:24;5.20;;;1.50;;
12302;SDS011;6214;48.012;7.862;2024-02-15T10:07:51;4.97;;;1.60;;
12302;SDS011;6214;48.012;7.862;2024-02-15T10:10:18;4.80;;;1.20;;
12302;SDS011;6214;48.012;7.862;2024-02-15T10:12:47;5.00;;;1.23;;
12302;SDS011;6214;48.012;7.862;2024-02-15T10:15:36;4.87;;;1.30;;
12302;SDS011;6214;48.012;7.862;2024-02-15T10:18:04;4.70;;;0.90;;
12302;SDS011;6214;48.012;7.862;2024-02-15T10:20:40;5.50;;;1.60;;
12302;SDS011;6214;48.012;7.862;2024-02-15T10:23:11;4.95;;;1.40;;
12302;SDS011;6214;48.012;7.862;2024-02-15T10:25:39;5.50;;;1.90;;
12302;SDS011;6214;48.012;7.862;2024-02-15T10:28:07;5.20;;;1.60;;
12302;SDS011;6214;48.012;7.862;2024-02-15T10:30:36;5.35;;;1.80;;
12302;SDS011;6214;48.012;7.862;2024-02-15T10:33:05;4.80;;;1.30;;
12302;SDS011;6214;48.012;7.862;2024-02-15T10:35:34;6.00;;;1.80;;
12302;SDS011;6214;48.012;7.862;2024-02-15T10:38:08;5.10;;;1.63;;
12302;SDS011;6214;48.012;7.862;2024-02-15T10:40:37;4.50;;;1.10;;
12302;SDS011;6214;48.012;7.862;2024-02-15T10:43:04;4.80;;;1.30;;
12302;SDS011;6214;48.012;7.862;2024-02-15T10:45:32;5.60;;;1.42;;
12302;SDS011;6214;48.012;7.862;2024-02-15T10:48:05;5.80;;;1.70;;
12302;SDS011;6214;48.012;7.862;2024-02-15T10:50:39;4.53;;;1.00;;
12302;SDS011;6214;48.012;7.862;2024-02-15T10:58:40;5.57;;;2.05;;
12302;SDS011;6214;48.012;7.862;2024-02-15T11:01:18;6.57;;;2.20;;
12302;SDS011;6214;48.012;7.862;2024-02-15T11:03:53;5.38;;;2.05;;
12302;SDS011;6214;48.012;7.862;2024-02-15T11:06:28;5.57;;;2.25;;
12302;SDS011;6214;48.012;7.862;2024-02-15T11:08:57;4.90;;;1.40;;
12302;SDS011;6214;48.012;7.862;2024-02-15T11:11:25;5.30;;;1.50;;
12302;SDS011;6214;48.012;7.862;2024-02-15T11:17:01;5.22;;;1.50;;
12302;SDS011;6214;48.012;7.862;2024-02-15T11:22:12;6.00;;;2.20;;
12302;SDS011;6214;48.012;7.862;2024-02-15T11:24:48;5.20;;;1.80;;
12302;SDS011;6214;48.012;7.862;2024-02-15T11:27:26;4.60;;;1.10;;
12302;SDS011;6214;48.012;7.862;2024-02-15T11:30:00;6.15;;;2.30;;
12302;SDS011;6214;48.012;7.862;2024-02-15T11:32:45;6.13;;;1.98;;
12302;SDS011;6214;48.012;7.862;2024-02-15T11:35:17;5.20;;;1.40;;
12302;SDS011;6214;48.012;7.862;2024-02-15T11:40:17;5.50;;;1.80;;
12302;SDS011;6214;48.012;7.862;2024-02-15T11:42:45;4.80;;;1.40;;
12302;SDS011;6214;48.012;7.862;2024-02-15T11:45:14;5.10;;;1.60;;
12302;SDS011;6214;48.012;7.862;2024-02-15T11:47:46;5.40;;;1.20;;
12302;SDS011;6214;48.012;7.862;2024-02-15T11:50:17;4.72;;;1.20;;
12302;SDS011;6214;48.012;7.862;2024-02-15T11:52:50;5.20;;;1.13;;
12302;SDS011;6214;48.012;7.862;2024-02-15T11:55:18;5.65;;;1.70;;
12302;SDS011;6214;48.012;7.862;2024-02-15T11:57:59;5.15;;;1.60;;
12302;SDS011;6214;48.012;7.862;2024-02-15T12:00:38;5.60;;;1.60;;
12302;SDS011;6214;48.012;7.862;2024-02-15T12:03:24;5.57;;;1.70;;
12302;SDS011;6214;48.012;7.862;2024-02-15T12:06:28;5.60;;;1.90;;
12302;SDS011;6214;48.012;7.862;2024-02-15T12:09:18;5.57;;;1.50;;
12302;SDS011;6214;48.012;7.862;2024-02-15T12:12:05;4.70;;;1.10;;
12302;SDS011;6214;48.012;7.862;2024-02-15T12:14:58;6.00;;;2.17;;
12302;SDS011;6214;48.012;7.862;2024-02-15T12:17:47;4.90;;;1.45;;
12302;SDS011;6214;48.012;7.862;2024-02-15T12:20:33;5.65;;;1.60;;
12302;SDS011;6214;48.012;7.862;2024-02-15T12:23:01;5.93;;;1.73;;
12302;SDS011;6214;48.012;7.862;2024-02-15T12:25:28;5.30;;;1.45;;
12302;SDS011;6214;48.012;7.862;2024-02-15T12:27:55;5.50;;;2.10;;
12302;SDS011;6214;48.012;7.862;2024-02-15T12:30:22;5.20;;;1.80;;
12302;SDS011;6214;48.012;7.862;2024-02-15T12:32:52;5.30;;;1.50;;
12302;SDS011;6214;48.012;7.862;2024-02-15T12:35:35;5.78;;;1.60;;
12302;SDS011;6214;48.012;7.862;2024-02-15T12:38:02;5.10;;;1.73;;
12302;SDS011;6214;48.012;7.862;2024-02-15T12:40:35;5.05;;;1.30;;
12302;SDS011;6214;48.012;7.862;2024-02-15T12:43:05;5.10;;;1.20;;
12302;SDS011;6214;48.012;7.862;2024-02-15T12:45:32;5.10;;;1.20;;
12302;SDS011;6214;48.012;7.862;2024-02-15T12:48:03;4.70;;;1.00;;
12302;SDS011;6214;48.012;7.862;2024-02-15T12:50:32;4.88;;;0.90;;
12302;SDS011;6214;48.012;7.862;2024-02-15T12:53:00;4.90;;;1.10;;
12302;SDS011;6214;48.012;7.862;2024-02-15T12:55:36;5.10;;;1.30;;
12302;SDS011;6214;48.012;7.862;2024-02-15T12:58:09;4.70;;;1.20;;
12302;SDS011;6214;48.012;7.862;2024-02-15T13:00:39;5.05;;;1.20;;
12302;SDS011;6214;48.012;7.862;2024-02-15T13:03:08;5.32;;;1.13;;
12302;SDS011;6214;48.012;7.862;2024-02-15T13:05:38;4.70;;;1.20;;
12302;SDS011;6214;48.012;7.862;2024-02-15T13:08:05;4.70;;;1.03;;
12302;SDS011;6214;48.012;7.862;2024-02-15T13:10:36;4.45;;;0.90;;
12302;SDS011;6214;48.012;7.862;2024-02-15T13:13:05;4.72;;;1.30;;
12302;SDS011;6214;48.012;7.862;2024-02-15T13:15:32;5.10;;;1.52;;
12302;SDS011;6214;48.012;7.862;2024-02-15T13:18:00;4.78;;;1.10;;
12302;SDS011;6214;48.012;7.862;2024-02-15T13:20:31;4.40;;;0.80;;
12302;SDS011;6214;48.012;7.862;2024-02-15T13:23:03;4.47;;;0.85;;
12302;SDS011;6214;48.012;7.862;2024-02-15T13:25:49;5.18;;;1.00;;
12302;SDS011;6214;48.012;7.862;2024-02-15T13:28:18;5.10;;;1.60;;
12302;SDS011;6214;48.012;7.862;2024-02-15T13:30:45;5.30;;;1.55;;
12302;SDS011;6214;48.012;7.862;2024-02-15T13:33:12;4.45;;;0.95;;
12302;SDS011;6214;48.012;7.862;2024-02-15T13:35:40;4.50;;;1.00;;
12302;SDS011;6214;48.012;7.862;2024-02-15T13:38:07;4.50;;;0.80;;
12302;SDS011;6214;48.012;7.862;2024-02-15T13:40:40;4.88;;;1.10;;
12302;SDS011;6214;48.012;7.862;2024-02-15T13:43:08;4.60;;;1.00;;
12302;SDS011;6214;48.012;7.862;2024-02-15T13:45:39;4.53;;;1.00;;
12302;SDS011;6214;48.012;7.862;2024-02-15T13:48:07;4.70;;;1.30;;
12302;SDS011;6214;48.012;7.862;2024-02-15T13:50:35;5.03;;;1.30;;
12302;SDS011;6214;48.012;7.862;2024-02-15T13:53:03;5.10;;;1.40;;
12302;SDS011;6214;48.012;7.862;2024-02-15T13:55:30;5.00;;;1.50;;
12302;SDS011;6214;48.012;7.862;2024-02-15T13:57:58;4.90;;;1.20;;
12302;SDS011;6214;48.012;7.862;2024-02-15T14:00:26;5.32;;;1.20;;
12302;SDS011;6214;48.012;7.862;2024-02-15T14:02:57;4.40;;;0.80;;
12302;SDS011;6214;48.012;7.862;2024-02-15T14:05:26;4.90;;;1.38;;
12302;SDS011;6214;48.012;7.862;2024-02-15T14:08:00;4.60;;;1.10;;
12302;SDS011;6214;48.012;7.862;2024-02-15T14:10:38;4.20;;;0.60;;
12302;SDS011;6214;48.012;7.862;2024-02-15T14:13:04;5.30;;;1.60;;
12302;SDS011;6214;48.012;7.862;2024-02-15T14:15:32;5.20;;;1.40;;
12302;SDS011;6214;48.012;7.862;2024-02-15T14:18:08;4.90;;;1.30;;
12302;SDS011;6214;48.012;7.862;2024-02-15T14:20:46;5.50;;;1.40;;
12302;SDS011;6214;48.012;7.862;2024-02-15T14:23:14;4.80;;;1.33;;
12302;SDS011;6214;48.012;7.862;2024-02-15T14:25:42;4.47;;;1.00;;
12302;SDS011;6214;48.012;7.862;2024-02-15T14:28:10;4.50;;;0.90;;
12302;SDS011;6214;48.012;7.862;2024-02-15T14:30:39;4.45;;;0.90;;
12302;SDS011;6214;48.012;7.862;2024-02-15T14:33:25;5.07;;;1.38;;
12302;SDS011;6214;48.012;7.862;2024-02-15T14:35:59;5.10;;;1.52;;
12302;SDS011;6214;48.012;7.862;2024-02-15T14:38:27;4.40;;;0.80;;
12302;SDS011;6214;48.012;7.862;2024-02-15T14:40:55;5.30;;;1.80;;
12302;SDS011;6214;48.012;7.862;2024-02-15T14:43:24;5.60;;;1.90;;
12302;SDS011;6214;48.012;7.862;2024-02-15T14:45:51;5.20;;;1.40;;
12302;SDS011;6214;48.012;7.862;2024-02-15T14:48:23;5.10;;;1.58;;
12302;SDS011;6214;48.012;7.862;2024-02-15T14:50:51;4.90;;;1.42;;
12302;SDS011;6214;48.012;7.862;2024-02-15T14:53:19;5.00;;;1.40;;
12302;SDS011;6214;48.012;7.862;2024-02-15T14:55:46;5.10;;;1.50;;
12302;SDS011;6214;48.012;7.862;2024-02-15T14:58:13;5.10;;;1.60;;
12302;SDS011;6214;48.012;7.862;2024-02-15T15:00:43;5.47;;;1.60;;
12302;SDS011;6214;48.012;7.862;2024-02-15T15:03:12;5.57;;;1.50;;
12302;SDS011;6214;48.012;7.862;2024-02-15T15:05:40;4.90;;;1.30;;
12302;SDS011;6214;48.012;7.862;2024-02-15T15:08:27;5.30;;;1.10;;
12302;SDS011;6214;48.012;7.862;2024-02-15T15:11:12;5.03;;;1.30;;
12302;SDS011;6214;48.012;7.862;2024-02-15T15:13:58;5.33;;;1.47;;
12302;SDS011;6214;48.012;7.862;2024-02-15T15:16:24;4.60;;;1.00;;
12302;SDS011;6214;48.012;7.862;2024-02-15T15:18:53;4.78;;;1.27;;
12302;SDS011;6214;48.012;7.862;2024-02-15T15:21:20;4.60;;;1.00;;
12302;SDS011;6214;48.012;7.862;2024-02-15T15:23:49;4.20;;;0.70;;
12302;SDS011;6214;48.012;7.862;2024-02-15T15:26:19;4.60;;;0.90;;
12302;SDS011;6214;48.012;7.862;2024-02-15T15:28:47;4.90;;;1.00;;